sensor_id;sensor_type;location;lat;lon;timestamp;P1;durP1;ratioP1;P2;durP2;ratioP2
58950;SDS011;44730;53.158;6.398;2023-04-25T00:00:56;19.00;;;4.97;;
58950;SDS011;44730;53.158;6.398;2023-04-25T00:03:22;11.30;;;4.10;;
58950;SDS011;44730;53.158;6.398;2023-04-25T00:05:50;9.18;;;4.03;;
58950;SDS011;44730;53.158;6.398;2023-04-25T00:08:17;13.73;;;4.10;;
58950;SDS011;44730;53.158;6.398;2023-04-25T00:10:43;10.68;;;3.53;;
58950;SDS011;44730;53.158;6.398;2023-04-25T00:13:09;8.25;;;3.38;;
58950;SDS011;44730;53.158;6.398;2023-04-25T00:15:36;10.32;;;3.75;;
58950;SDS011;44730;53.158;6.398;2023-04-25T00:18:03;9.75;;;3.65;;
58950;SDS011;44730;53.158;6.398;2023-04-25T00:20:30;12.95;;;3.60;;
58950;SDS011;44730;53.158;6.398;2023-04-25T00:22:56;9.48;;;3.60;;
58950;SDS011;44730;53.158;6.398;2023-04-25T00:25:22;8.52;;;3.40;;
58950;SDS011;44730;53.158;6.398;2023-04-25T00:27:49;10.95;;;3.75;;
58950;SDS011;44730;53.158;6.398;2023-04-25T00:30:15;7.97;;;3.30;;
58950;SDS011;44730;53.158;6.398;2023-04-25T00:32:41;6.28;;;3.08;;
58950;SDS011;44730;53.158;6.398;2023-04-25T00:35:08;7.95;;;3.03;;
58950;SDS011;44730;53.158;6.398;2023-04-25T00:37:34;7.80;;;3.08;;
58950;SDS011;44730;53.158;6.398;2023-04-25T00:40:02;6.95;;;3.00;;
58950;SDS011;44730;53.158;6.398;2023-04-25T00:42:31;9.60;;;2.67;;
58950;SDS011;44730;53.158;6.398;2023-04-25T00:44:58;7.05;;;2.83;;
58950;SDS011;44730;53.158;6.398;2023-04-25T00:47:24;11.38;;;3.60;;
58950;SDS011;44730;53.158;6.398;2023-04-25T00:49:52;9.77;;;3.53;;
58950;SDS011;44730;53.158;6.398;2023-04-25T00:52:18;6.55;;;2.65;;
58950;SDS011;44730;53.158;6.398;2023-04-25T00:54:46;7.75;;;3.38;;
58950;SDS011;44730;53.158;6.398;2023-04-25T00:57:12;9.02;;;2.90;;
58950;SDS011;44730;53.158;6.398;2023-04-25T00:59:40;7.57;;;2.60;;
58950;SDS011;44730;53.158;6.398;2023-04-25T01:02:07;7.95;;;2.95;;
58950;SDS011;44730;53.158;6.398;2023-04-25T01:04:35;10.43;;;2.60;;
58950;SDS011;44730;53.158;6.398;2023-04-25T01:07:01;9.25;;;2.70;;
58950;SDS011;44730;53.158;6.398;2023-04-25T01:09:28;7.82;;;2.72;;
58950;SDS011;44730;53.158;6.398;2023-04-25T01:11:56;8.68;;;3.00;;
58950;SDS011;44730;53.158;6.398;2023-04-25T01:14:23;10.65;;;2.85;;
58950;SDS011;44730;53.158;6.398;2023-04-25T01:16:49;5.70;;;2.50;;
58950;SDS011;44730;53.158;6.398;2023-04-25T01:19:16;7.13;;;2.10;;
58950;SDS011;44730;53.158;6.398;2023-04-25T01:21:43;6.57;;;2.90;;
58950;SDS011;44730;53.158;6.398;2023-04-25T01:24:10;8.82;;;2.90;;
58950;SDS011;44730;53.158;6.398;2023-04-25T01:26:36;6.07;;;2.80;;
58950;SDS011;44730;53.158;6.398;2023-04-25T01:29:07;5.60;;;2.80;;
58950;SDS011;44730;53.158;6.398;2023-04-25T01:31:33;7.30;;;3.08;;
58950;SDS011;44730;53.158;6.398;2023-04-25T01:34:00;5.65;;;2.55;;
58950;SDS011;44730;53.158;6.398;2023-04-25T01:36:26;7.60;;;2.78;;
58950;SDS011;44730;53.158;6.398;2023-04-25T01:38:52;9.55;;;2.60;;
58950;SDS011;44730;53.158;6.398;2023-04-25T01:41:18;11.07;;;3.20;;
58950;SDS011;44730;53.158;6.398;2023-04-25T01:43:44;9.52;;;2.75;;
58950;SDS011;44730;53.158;6.398;2023-04-25T01:46:11;10.05;;;2.80;;
58950;SDS011;44730;53.158;6.398;2023-04-25T01:48:37;7.72;;;3.10;;
58950;SDS011;44730;53.158;6.398;2023-04-25T01:51:03;6.68;;;2.70;;
58950;SDS011;44730;53.158;6.398;2023-04-25T01:53:30;5.28;;;2.75;;
58950;SDS011;44730;53.158;6.398;2023-04-25T01:55:56;9.15;;;2.55;;
58950;SDS011;44730;53.158;6.398;2023-04-25T01:58:22;6.65;;;2.47;;
58950;SDS011;44730;53.158;6.398;2023-04-25T02:00:48;7.93;;;2.65;;
58950;SDS011;44730;53.158;6.398;2023-04-25T02:03:14;6.28;;;2.70;;
58950;SDS011;44730;53.158;6.398;2023-04-25T02:05:40;9.95;;;2.50;;
58950;SDS011;44730;53.158;6.398;2023-04-25T02:08:07;6.30;;;2.50;;
58950;SDS011;44730;53.158;6.398;2023-04-25T02:10:34;6.68;;;2.40;;
58950;SDS011;44730;53.158;6.398;2023-04-25T02:13:00;6.22;;;2.33;;
58950;SDS011;44730;53.158;6.398;2023-04-25T02:15:26;9.68;;;2.92;;
58950;SDS011;44730;53.158;6.398;2023-04-25T02:17:52;4.72;;;2.45;;
58950;SDS011;44730;53.158;6.398;2023-04-25T02:20:20;8.95;;;2.72;;
58950;SDS011;44730;53.158;6.398;2023-04-25T02:22:46;8.10;;;2.28;;
58950;SDS011;44730;53.158;6.398;2023-04-25T02:25:13;9.02;;;3.08;;
58950;SDS011;44730;53.158;6.398;2023-04-25T02:27:39;6.00;;;2.25;;
58950;SDS011;44730;53.158;6.398;2023-04-25T02:30:05;6.45;;;2.55;;
58950;SDS011;44730;53.158;6.398;2023-04-25T02:32:32;10.63;;;2.92;;
58950;SDS011;44730;53.158;6.398;2023-04-25T02:34:59;13.75;;;3.83;;
58950;SDS011;44730;53.158;6.398;2023-04-25T02:37:29;7.68;;;2.75;;
58950;SDS011;44730;53.158;6.398;2023-04-25T02:39:55;10.35;;;2.55;;
58950;SDS011;44730;53.158;6.398;2023-04-25T02:42:21;7.35;;;2.92;;
58950;SDS011;44730;53.158;6.398;2023-04-25T02:44:48;5.25;;;2.30;;
58950;SDS011;44730;53.158;6.398;2023-04-25T02:47:14;6.57;;;2.63;;
58950;SDS011;44730;53.158;6.398;2023-04-25T02:49:40;6.10;;;2.30;;
58950;SDS011;44730;53.158;6.398;2023-04-25T02:52:06;6.35;;;2.20;;
58950;SDS011;44730;53.158;6.398;2023-04-25T02:54:32;8.07;;;2.58;;
58950;SDS011;44730;53.158;6.398;2023-04-25T02:56:58;10.23;;;2.38;;
58950;SDS011;44730;53.158;6.398;2023-04-25T02:59:26;4.15;;;2.13;;
58950;SDS011;44730;53.158;6.398;2023-04-25T03:01:52;8.88;;;2.55;;
58950;SDS011;44730;53.158;6.398;2023-04-25T03:04:18;7.53;;;2.50;;
58950;SDS011;44730;53.158;6.398;2023-04-25T03:06:45;8.40;;;2.60;;
58950;SDS011;44730;53.158;6.398;2023-04-25T03:09:11;8.65;;;2.67;;
58950;SDS011;44730;53.158;6.398;2023-04-25T03:11:40;6.05;;;2.83;;
58950;SDS011;44730;53.158;6.398;2023-04-25T03:14:07;4.32;;;2.30;;
58950;SDS011;44730;53.158;6.398;2023-04-25T03:16:33;9.52;;;2.47;;
58950;SDS011;44730;53.158;6.398;2023-04-25T03:18:59;6.55;;;2.20;;
58950;SDS011;44730;53.158;6.398;2023-04-25T03:21:25;5.00;;;2.15;;
58950;SDS011;44730;53.158;6.398;2023-04-25T03:23:51;7.72;;;3.15;;
58950;SDS011;44730;53.158;6.398;2023-04-25T03:26:18;7.10;;;2.20;;
58950;SDS011;44730;53.158;6.398;2023-04-25T03:28:44;9.55;;;2.38;;
58950;SDS011;44730;53.158;6.398;2023-04-25T03:31:10;4.82;;;2.10;;
58950;SDS011;44730;53.158;6.398;2023-04-25T03:33:36;6.80;;;2.58;;
58950;SDS011;44730;53.158;6.398;2023-04-25T03:36:03;6.30;;;2.05;;
58950;SDS011;44730;53.158;6.398;2023-04-25T03:38:29;6.40;;;2.00;;
58950;SDS011;44730;53.158;6.398;2023-04-25T03:40:57;6.28;;;1.85;;
58950;SDS011;44730;53.158;6.398;2023-04-25T03:43:23;3.92;;;2.00;;
58950;SDS011;44730;53.158;6.398;2023-04-25T03:45:50;9.48;;;2.40;;
58950;SDS011;44730;53.158;6.398;2023-04-25T03:48:16;5.88;;;2.53;;
58950;SDS011;44730;53.158;6.398;2023-04-25T03:50:42;7.32;;;2.47;;
58950;SDS011;44730;53.158;6.398;2023-04-25T03:53:08;9.13;;;2.47;;
58950;SDS011;44730;53.158;6.398;2023-04-25T03:55:35;6.38;;;1.95;;
58950;SDS011;44730;53.158;6.398;2023-04-25T03:58:01;6.95;;;3.03;;
58950;SDS011;44730;53.158;6.398;2023-04-25T04:00:27;5.18;;;2.00;;
58950;SDS011;44730;53.158;6.398;2023-04-25T04:02:53;5.10;;;2.40;;
58950;SDS011;44730;53.158;6.398;2023-04-25T04:05:19;6.13;;;2.53;;
58950;SDS011;44730;53.158;6.398;2023-04-25T04:07:46;7.85;;;2.15;;
58950;SDS011;44730;53.158;6.398;2023-04-25T04:10:12;6.20;;;2.00;;
58950;SDS011;44730;53.158;6.398;2023-04-25T04:12:38;5.88;;;2.35;;
58950;SDS011;44730;53.158;6.398;2023-04-25T04:15:04;6.65;;;2.28;;
58950;SDS011;44730;53.158;6.398;2023-04-25T04:17:31;3.90;;;1.85;;
58950;SDS011;44730;53.158;6.398;2023-04-25T04:19:57;5.15;;;2.13;;
58950;SDS011;44730;53.158;6.398;2023-04-25T04:22:24;6.15;;;2.47;;
58950;SDS011;44730;53.158;6.398;2023-04-25T04:24:51;7.25;;;1.85;;
58950;SDS011;44730;53.158;6.398;2023-04-25T04:27:17;4.68;;;2.35;;
58950;SDS011;44730;53.158;6.398;2023-04-25T04:29:44;8.02;;;2.25;;
58950;SDS011;44730;53.158;6.398;2023-04-25T04:32:11;13.25;;;3.58;;
58950;SDS011;44730;53.158;6.398;2023-04-25T04:34:38;8.35;;;2.55;;
58950;SDS011;44730;53.158;6.398;2023-04-25T04:37:04;11.68;;;2.75;;
58950;SDS011;44730;53.158;6.398;2023-04-25T04:39:32;6.93;;;2.10;;
58950;SDS011;44730;53.158;6.398;2023-04-25T04:41:59;6.78;;;2.28;;
58950;SDS011;44730;53.158;6.398;2023-04-25T04:44:28;7.75;;;2.17;;
58950;SDS011;44730;53.158;6.398;2023-04-25T04:46:54;8.10;;;2.75;;
58950;SDS011;44730;53.158;6.398;2023-04-25T04:49:20;6.60;;;2.05;;
58950;SDS011;44730;53.158;6.398;2023-04-25T04:51:46;10.40;;;2.65;;
58950;SDS011;44730;53.158;6.398;2023-04-25T04:54:14;6.43;;;2.30;;
58950;SDS011;44730;53.158;6.398;2023-04-25T04:56:40;8.90;;;2.25;;
58950;SDS011;44730;53.158;6.398;2023-04-25T04:59:07;10.45;;;2.80;;
58950;SDS011;44730;53.158;6.398;2023-04-25T05:01:33;10.15;;;3.15;;
58950;SDS011;44730;53.158;6.398;2023-04-25T05:04:01;8.27;;;2.20;;
58950;SDS011;44730;53.158;6.398;2023-04-25T05:06:28;4.68;;;2.40;;
58950;SDS011;44730;53.158;6.398;2023-04-25T05:08:54;6.50;;;2.47;;
58950;SDS011;44730;53.158;6.398;2023-04-25T05:11:21;7.15;;;2.47;;
58950;SDS011;44730;53.158;6.398;2023-04-25T05:13:48;5.40;;;2.42;;
58950;SDS011;44730;53.158;6.398;2023-04-25T05:16:14;6.13;;;2.72;;
58950;SDS011;44730;53.158;6.398;2023-04-25T05:18:40;5.38;;;2.38;;
58950;SDS011;44730;53.158;6.398;2023-04-25T05:21:06;10.90;;;2.83;;
58950;SDS011;44730;53.158;6.398;2023-04-25T05:23:32;6.43;;;2.33;;
58950;SDS011;44730;53.158;6.398;2023-04-25T05:25:59;4.47;;;2.10;;
58950;SDS011;44730;53.158;6.398;2023-04-25T05:28:31;6.30;;;2.55;;
58950;SDS011;44730;53.158;6.398;2023-04-25T05:30:57;6.55;;;2.22;;
58950;SDS011;44730;53.158;6.398;2023-04-25T05:33:23;6.57;;;2.20;;
58950;SDS011;44730;53.158;6.398;2023-04-25T05:35:49;5.30;;;2.45;;
58950;SDS011;44730;53.158;6.398;2023-04-25T05:38:16;4.10;;;1.98;;
58950;SDS011;44730;53.158;6.398;2023-04-25T05:40:44;7.18;;;2.83;;
58950;SDS011;44730;53.158;6.398;2023-04-25T05:43:11;4.00;;;2.00;;
58950;SDS011;44730;53.158;6.398;2023-04-25T05:45:38;8.55;;;2.58;;
58950;SDS011;44730;53.158;6.398;2023-04-25T05:48:04;7.18;;;2.17;;
58950;SDS011;44730;53.158;6.398;2023-04-25T05:50:30;9.85;;;2.10;;
58950;SDS011;44730;53.158;6.398;2023-04-25T05:52:56;4.18;;;2.10;;
58950;SDS011;44730;53.158;6.398;2023-04-25T05:55:22;4.63;;;1.85;;
58950;SDS011;44730;53.158;6.398;2023-04-25T05:57:48;5.97;;;2.33;;
58950;SDS011;44730;53.158;6.398;2023-04-25T06:00:15;8.30;;;1.85;;
58950;SDS011;44730;53.158;6.398;2023-04-25T06:02:41;7.10;;;2.45;;
58950;SDS011;44730;53.158;6.398;2023-04-25T06:05:08;4.88;;;2.05;;
58950;SDS011;44730;53.158;6.398;2023-04-25T06:07:34;5.68;;;1.90;;
58950;SDS011;44730;53.158;6.398;2023-04-25T06:10:00;6.15;;;1.70;;
58950;SDS011;44730;53.158;6.398;2023-04-25T06:12:26;10.73;;;2.10;;
58950;SDS011;44730;53.158;6.398;2023-04-25T06:14:52;5.50;;;1.83;;
58950;SDS011;44730;53.158;6.398;2023-04-25T06:17:19;9.20;;;2.25;;
58950;SDS011;44730;53.158;6.398;2023-04-25T06:19:45;7.65;;;2.08;;
58950;SDS011;44730;53.158;6.398;2023-04-25T06:22:11;4.75;;;1.95;;
58950;SDS011;44730;53.158;6.398;2023-04-25T06:24:37;6.53;;;2.10;;
58950;SDS011;44730;53.158;6.398;2023-04-25T06:27:03;8.45;;;2.00;;
58950;SDS011;44730;53.158;6.398;2023-04-25T06:29:31;4.65;;;1.70;;
58950;SDS011;44730;53.158;6.398;2023-04-25T06:31:57;5.20;;;1.58;;
58950;SDS011;44730;53.158;6.398;2023-04-25T06:34:23;3.22;;;1.60;;
58950;SDS011;44730;53.158;6.398;2023-04-25T06:36:49;3.70;;;1.85;;
58950;SDS011;44730;53.158;6.398;2023-04-25T06:39:15;4.45;;;1.73;;
58950;SDS011;44730;53.158;6.398;2023-04-25T06:41:41;6.68;;;1.70;;
58950;SDS011;44730;53.158;6.398;2023-04-25T06:44:07;2.75;;;1.60;;
58950;SDS011;44730;53.158;6.398;2023-04-25T06:46:34;5.45;;;1.60;;
58950;SDS011;44730;53.158;6.398;2023-04-25T06:49:01;2.92;;;1.40;;
58950;SDS011;44730;53.158;6.398;2023-04-25T06:51:27;4.57;;;2.25;;
58950;SDS011;44730;53.158;6.398;2023-04-25T06:53:54;4.45;;;1.20;;
58950;SDS011;44730;53.158;6.398;2023-04-25T06:56:21;4.55;;;2.10;;
58950;SDS011;44730;53.158;6.398;2023-04-25T06:58:48;5.85;;;1.75;;
58950;SDS011;44730;53.158;6.398;2023-04-25T07:01:14;5.93;;;1.42;;
58950;SDS011;44730;53.158;6.398;2023-04-25T07:03:40;4.05;;;1.90;;
58950;SDS011;44730;53.158;6.398;2023-04-25T07:06:06;5.35;;;1.70;;
58950;SDS011;44730;53.158;6.398;2023-04-25T07:08:32;3.55;;;1.85;;
58950;SDS011;44730;53.158;6.398;2023-04-25T07:10:59;6.13;;;2.22;;
58950;SDS011;44730;53.158;6.398;2023-04-25T07:13:25;6.03;;;1.50;;
58950;SDS011;44730;53.158;6.398;2023-04-25T07:15:51;2.92;;;1.48;;
58950;SDS011;44730;53.158;6.398;2023-04-25T07:18:17;9.43;;;1.55;;
58950;SDS011;44730;53.158;6.398;2023-04-25T07:20:43;3.38;;;1.63;;
58950;SDS011;44730;53.158;6.398;2023-04-25T07:23:09;5.63;;;1.88;;
58950;SDS011;44730;53.158;6.398;2023-04-25T07:25:36;4.90;;;1.77;;
58950;SDS011;44730;53.158;6.398;2023-04-25T07:28:03;5.03;;;1.65;;
58950;SDS011;44730;53.158;6.398;2023-04-25T07:30:30;3.42;;;1.67;;
58950;SDS011;44730;53.158;6.398;2023-04-25T07:32:56;3.22;;;1.50;;
58950;SDS011;44730;53.158;6.398;2023-04-25T07:35:22;3.88;;;1.50;;
58950;SDS011;44730;53.158;6.398;2023-04-25T07:37:48;2.85;;;1.45;;
58950;SDS011;44730;53.158;6.398;2023-04-25T07:40:14;3.13;;;1.60;;
58950;SDS011;44730;53.158;6.398;2023-04-25T07:42:41;6.75;;;2.17;;
58950;SDS011;44730;53.158;6.398;2023-04-25T07:45:07;3.05;;;1.33;;
58950;SDS011;44730;53.158;6.398;2023-04-25T07:47:34;2.92;;;1.40;;
58950;SDS011;44730;53.158;6.398;2023-04-25T07:50:01;4.13;;;1.35;;
58950;SDS011;44730;53.158;6.398;2023-04-25T07:52:27;2.92;;;1.05;;
58950;SDS011;44730;53.158;6.398;2023-04-25T07:54:53;1.92;;;1.10;;
58950;SDS011;44730;53.158;6.398;2023-04-25T07:57:19;2.65;;;1.23;;
58950;SDS011;44730;53.158;6.398;2023-04-25T07:59:46;2.10;;;1.25;;
58950;SDS011;44730;53.158;6.398;2023-04-25T08:02:12;4.22;;;1.63;;
58950;SDS011;44730;53.158;6.398;2023-04-25T08:04:38;4.75;;;1.38;;
58950;SDS011;44730;53.158;6.398;2023-04-25T08:07:04;4.18;;;1.38;;
58950;SDS011;44730;53.158;6.398;2023-04-25T08:09:30;2.17;;;1.33;;
58950;SDS011;44730;53.158;6.398;2023-04-25T08:12:00;6.18;;;1.80;;
58950;SDS011;44730;53.158;6.398;2023-04-25T08:14:27;3.42;;;1.33;;
58950;SDS011;44730;53.158;6.398;2023-04-25T08:16:56;3.58;;;1.35;;
58950;SDS011;44730;53.158;6.398;2023-04-25T08:19:22;4.47;;;1.33;;
58950;SDS011;44730;53.158;6.398;2023-04-25T08:21:48;3.25;;;0.98;;
58950;SDS011;44730;53.158;6.398;2023-04-25T08:24:16;3.35;;;1.25;;
58950;SDS011;44730;53.158;6.398;2023-04-25T08:26:42;1.83;;;1.13;;
58950;SDS011;44730;53.158;6.398;2023-04-25T08:29:08;1.42;;;1.08;;
58950;SDS011;44730;53.158;6.398;2023-04-25T08:31:34;2.28;;;0.90;;
58950;SDS011;44730;53.158;6.398;2023-04-25T08:34:01;3.22;;;1.60;;
58950;SDS011;44730;53.158;6.398;2023-04-25T08:36:27;2.22;;;1.30;;
58950;SDS011;44730;53.158;6.398;2023-04-25T08:38:53;2.05;;;1.33;;
58950;SDS011;44730;53.158;6.398;2023-04-25T08:41:20;2.60;;;1.33;;
58950;SDS011;44730;53.158;6.398;2023-04-25T08:43:47;1.33;;;1.13;;
58950;SDS011;44730;53.158;6.398;2023-04-25T08:46:15;0.95;;;0.80;;
58950;SDS011;44730;53.158;6.398;2023-04-25T08:48:43;3.67;;;0.90;;
58950;SDS011;44730;53.158;6.398;2023-04-25T08:51:10;1.75;;;1.00;;
58950;SDS011;44730;53.158;6.398;2023-04-25T08:53:41;4.18;;;1.50;;
58950;SDS011;44730;53.158;6.398;2023-04-25T08:56:07;3.42;;;1.10;;
58950;SDS011;44730;53.158;6.398;2023-04-25T08:58:34;1.58;;;1.10;;
58950;SDS011;44730;53.158;6.398;2023-04-25T09:01:01;2.50;;;1.50;;
58950;SDS011;44730;53.158;6.398;2023-04-25T09:03:27;3.17;;;1.42;;
58950;SDS011;44730;53.158;6.398;2023-04-25T09:05:53;2.50;;;1.20;;
58950;SDS011;44730;53.158;6.398;2023-04-25T09:08:19;6.45;;;1.60;;
58950;SDS011;44730;53.158;6.398;2023-04-25T09:10:45;3.42;;;1.42;;
58950;SDS011;44730;53.158;6.398;2023-04-25T09:13:14;2.78;;;1.55;;
58950;SDS011;44730;53.158;6.398;2023-04-25T09:18:13;4.47;;;1.50;;
58950;SDS011;44730;53.158;6.398;2023-04-25T09:20:43;3.13;;;1.65;;
58950;SDS011;44730;53.158;6.398;2023-04-25T09:23:09;5.68;;;1.85;;
58950;SDS011;44730;53.158;6.398;2023-04-25T09:25:36;4.40;;;1.75;;
58950;SDS011;44730;53.158;6.398;2023-04-25T09:28:05;3.88;;;2.17;;
58950;SDS011;44730;53.158;6.398;2023-04-25T09:30:41;4.78;;;2.50;;
58950;SDS011;44730;53.158;6.398;2023-04-25T09:33:09;6.25;;;2.28;;
58950;SDS011;44730;53.158;6.398;2023-04-25T09:35:44;5.18;;;2.20;;
58950;SDS011;44730;53.158;6.398;2023-04-25T09:38:11;5.88;;;1.65;;
58950;SDS011;44730;53.158;6.398;2023-04-25T09:40:41;4.00;;;1.70;;
58950;SDS011;44730;53.158;6.398;2023-04-25T09:43:25;4.47;;;2.00;;
58950;SDS011;44730;53.158;6.398;2023-04-25T09:45:53;5.15;;;1.90;;
58950;SDS011;44730;53.158;6.398;2023-04-25T09:48:22;2.45;;;1.52;;
58950;SDS011;44730;53.158;6.398;2023-04-25T09:51:07;1.83;;;1.20;;
58950;SDS011;44730;53.158;6.398;2023-04-25T09:53:43;2.45;;;1.50;;
58950;SDS011;44730;53.158;6.398;2023-04-25T09:56:11;4.63;;;1.83;;
58950;SDS011;44730;53.158;6.398;2023-04-25T09:58:38;3.70;;;1.80;;
58950;SDS011;44730;53.158;6.398;2023-04-25T10:01:06;6.20;;;2.20;;
58950;SDS011;44730;53.158;6.398;2023-04-25T10:03:36;5.10;;;1.90;;
58950;SDS011;44730;53.158;6.398;2023-04-25T10:06:07;5.75;;;2.20;;
58950;SDS011;44730;53.158;6.398;2023-04-25T10:08:36;6.90;;;2.45;;
58950;SDS011;44730;53.158;6.398;2023-04-25T10:11:03;5.45;;;2.30;;
58950;SDS011;44730;53.158;6.398;2023-04-25T10:13:30;3.83;;;1.98;;
58950;SDS011;44730;53.158;6.398;2023-04-25T10:16:00;4.20;;;1.88;;
58950;SDS011;44730;53.158;6.398;2023-04-25T10:18:27;3.63;;;1.90;;
58950;SDS011;44730;53.158;6.398;2023-04-25T10:20:54;3.55;;;1.80;;
58950;SDS011;44730;53.158;6.398;2023-04-25T10:23:20;3.10;;;1.80;;
58950;SDS011;44730;53.158;6.398;2023-04-25T10:25:46;4.40;;;1.63;;
58950;SDS011;44730;53.158;6.398;2023-04-25T10:28:13;5.13;;;1.67;;
58950;SDS011;44730;53.158;6.398;2023-04-25T10:30:56;4.53;;;1.90;;
58950;SDS011;44730;53.158;6.398;2023-04-25T10:33:28;4.88;;;1.88;;
58950;SDS011;44730;53.158;6.398;2023-04-25T10:35:57;4.03;;;1.85;;
58950;SDS011;44730;53.158;6.398;2023-04-25T10:38:24;6.10;;;1.67;;
58950;SDS011;44730;53.158;6.398;2023-04-25T10:41:04;4.28;;;1.60;;
58950;SDS011;44730;53.158;6.398;2023-04-25T10:45:57;3.70;;;1.80;;
58950;SDS011;44730;53.158;6.398;2023-04-25T10:48:25;4.20;;;1.70;;
58950;SDS011;44730;53.158;6.398;2023-04-25T10:51:16;3.78;;;1.70;;
58950;SDS011;44730;53.158;6.398;2023-04-25T10:53:38;5.35;;;2.15;;
58950;SDS011;44730;53.158;6.398;2023-04-25T10:56:11;4.30;;;1.90;;
58950;SDS011;44730;53.158;6.398;2023-04-25T10:58:46;3.73;;;2.13;;
58950;SDS011;44730;53.158;6.398;2023-04-25T11:01:13;3.88;;;2.10;;
58950;SDS011;44730;53.158;6.398;2023-04-25T11:03:40;6.80;;;1.90;;
58950;SDS011;44730;53.158;6.398;2023-04-25T11:06:08;2.97;;;1.70;;
58950;SDS011;44730;53.158;6.398;2023-04-25T11:08:47;3.35;;;1.70;;
58950;SDS011;44730;53.158;6.398;2023-04-25T11:11:15;2.75;;;1.50;;
58950;SDS011;44730;53.158;6.398;2023-04-25T11:13:41;3.47;;;1.70;;
58950;SDS011;44730;53.158;6.398;2023-04-25T11:16:07;5.28;;;2.40;;
58950;SDS011;44730;53.158;6.398;2023-04-25T11:18:33;3.63;;;1.50;;
58950;SDS011;44730;53.158;6.398;2023-04-25T11:20:59;6.93;;;1.90;;
58950;SDS011;44730;53.158;6.398;2023-04-25T11:23:26;4.35;;;1.70;;
58950;SDS011;44730;53.158;6.398;2023-04-25T11:25:52;2.80;;;1.80;;
58950;SDS011;44730;53.158;6.398;2023-04-25T11:28:21;4.40;;;1.75;;
58950;SDS011;44730;53.158;6.398;2023-04-25T11:30:51;2.78;;;1.50;;
58950;SDS011;44730;53.158;6.398;2023-04-25T11:33:18;2.28;;;1.40;;
58950;SDS011;44730;53.158;6.398;2023-04-25T11:35:48;2.17;;;1.60;;
58950;SDS011;44730;53.158;6.398;2023-04-25T11:38:14;3.22;;;1.50;;
58950;SDS011;44730;53.158;6.398;2023-04-25T11:40:40;3.85;;;1.70;;
58950;SDS011;44730;53.158;6.398;2023-04-25T11:43:06;5.30;;;1.70;;
58950;SDS011;44730;53.158;6.398;2023-04-25T11:45:32;4.07;;;1.88;;
58950;SDS011;44730;53.158;6.398;2023-04-25T11:47:58;2.60;;;1.67;;
58950;SDS011;44730;53.158;6.398;2023-04-25T11:50:25;2.03;;;1.52;;
58950;SDS011;44730;53.158;6.398;2023-04-25T11:52:55;2.85;;;1.60;;
58950;SDS011;44730;53.158;6.398;2023-04-25T11:55:21;2.90;;;1.60;;
58950;SDS011;44730;53.158;6.398;2023-04-25T11:57:48;2.88;;;1.60;;
58950;SDS011;44730;53.158;6.398;2023-04-25T12:00:19;4.93;;;1.85;;
58950;SDS011;44730;53.158;6.398;2023-04-25T12:02:46;3.70;;;2.00;;
58950;SDS011;44730;53.158;6.398;2023-04-25T12:05:13;4.55;;;1.85;;
58950;SDS011;44730;53.158;6.398;2023-04-25T12:07:40;6.25;;;1.80;;
58950;SDS011;44730;53.158;6.398;2023-04-25T12:10:14;6.15;;;2.03;;
58950;SDS011;44730;53.158;6.398;2023-04-25T12:12:44;3.83;;;1.80;;
58950;SDS011;44730;53.158;6.398;2023-04-25T12:17:37;6.63;;;1.73;;
58950;SDS011;44730;53.158;6.398;2023-04-25T12:20:11;3.95;;;1.92;;
58950;SDS011;44730;53.158;6.398;2023-04-25T12:22:39;3.75;;;1.98;;
58950;SDS011;44730;53.158;6.398;2023-04-25T12:25:09;3.55;;;2.03;;
58950;SDS011;44730;53.158;6.398;2023-04-25T12:27:35;5.43;;;1.75;;
58950;SDS011;44730;53.158;6.398;2023-04-25T12:30:02;4.05;;;1.63;;
58950;SDS011;44730;53.158;6.398;2023-04-25T12:32:28;5.22;;;1.90;;
58950;SDS011;44730;53.158;6.398;2023-04-25T12:34:54;3.83;;;1.80;;
58950;SDS011;44730;53.158;6.398;2023-04-25T12:37:21;2.83;;;1.80;;
58950;SDS011;44730;53.158;6.398;2023-04-25T12:39:47;5.93;;;1.80;;
58950;SDS011;44730;53.158;6.398;2023-04-25T12:42:13;3.65;;;1.75;;
58950;SDS011;44730;53.158;6.398;2023-04-25T12:44:39;6.03;;;2.20;;
58950;SDS011;44730;53.158;6.398;2023-04-25T12:47:05;4.75;;;1.80;;
58950;SDS011;44730;53.158;6.398;2023-04-25T12:49:31;3.67;;;1.70;;
58950;SDS011;44730;53.158;6.398;2023-04-25T12:51:58;3.92;;;1.80;;
58950;SDS011;44730;53.158;6.398;2023-04-25T12:54:24;4.63;;;2.22;;
58950;SDS011;44730;53.158;6.398;2023-04-25T12:56:50;4.15;;;1.40;;
58950;SDS011;44730;53.158;6.398;2023-04-25T12:59:17;3.05;;;1.63;;
58950;SDS011;44730;53.158;6.398;2023-04-25T13:01:45;2.67;;;1.60;;
58950;SDS011;44730;53.158;6.398;2023-04-25T13:04:11;2.70;;;1.60;;
58950;SDS011;44730;53.158;6.398;2023-04-25T13:06:37;4.03;;;1.50;;
58950;SDS011;44730;53.158;6.398;2023-04-25T13:09:03;3.38;;;1.60;;
58950;SDS011;44730;53.158;6.398;2023-04-25T13:11:29;4.68;;;1.80;;
58950;SDS011;44730;53.158;6.398;2023-04-25T13:13:56;3.80;;;1.75;;
58950;SDS011;44730;53.158;6.398;2023-04-25T13:16:22;4.43;;;2.20;;
58950;SDS011;44730;53.158;6.398;2023-04-25T13:18:48;4.00;;;1.70;;
58950;SDS011;44730;53.158;6.398;2023-04-25T13:21:14;3.78;;;1.85;;
58950;SDS011;44730;53.158;6.398;2023-04-25T13:23:40;5.95;;;1.92;;
58950;SDS011;44730;53.158;6.398;2023-04-25T13:26:08;6.43;;;2.25;;
58950;SDS011;44730;53.158;6.398;2023-04-25T13:28:34;3.92;;;2.13;;
58950;SDS011;44730;53.158;6.398;2023-04-25T13:31:00;5.07;;;2.20;;
58950;SDS011;44730;53.158;6.398;2023-04-25T13:33:26;8.63;;;2.20;;
58950;SDS011;44730;53.158;6.398;2023-04-25T13:35:52;5.40;;;2.00;;
58950;SDS011;44730;53.158;6.398;2023-04-25T13:38:23;4.45;;;1.70;;
58950;SDS011;44730;53.158;6.398;2023-04-25T13:40:50;4.95;;;2.05;;
58950;SDS011;44730;53.158;6.398;2023-04-25T13:43:20;4.07;;;1.80;;
58950;SDS011;44730;53.158;6.398;2023-04-25T13:45:52;4.53;;;2.00;;
58950;SDS011;44730;53.158;6.398;2023-04-25T13:48:18;5.60;;;2.10;;
58950;SDS011;44730;53.158;6.398;2023-04-25T13:50:45;3.05;;;1.70;;
58950;SDS011;44730;53.158;6.398;2023-04-25T13:53:11;2.92;;;1.60;;
58950;SDS011;44730;53.158;6.398;2023-04-25T13:55:37;6.30;;;2.00;;
58950;SDS011;44730;53.158;6.398;2023-04-25T13:58:03;4.93;;;2.00;;
58950;SDS011;44730;53.158;6.398;2023-04-25T14:00:33;7.15;;;1.80;;
58950;SDS011;44730;53.158;6.398;2023-04-25T14:02:59;3.85;;;1.77;;
58950;SDS011;44730;53.158;6.398;2023-04-25T14:05:25;3.88;;;1.80;;
58950;SDS011;44730;53.158;6.398;2023-04-25T14:07:51;5.38;;;1.95;;
58950;SDS011;44730;53.158;6.398;2023-04-25T14:10:17;3.88;;;1.70;;
58950;SDS011;44730;53.158;6.398;2023-04-25T14:12:44;7.22;;;1.92;;
58950;SDS011;44730;53.158;6.398;2023-04-25T14:15:10;5.25;;;2.08;;
58950;SDS011;44730;53.158;6.398;2023-04-25T14:17:36;4.95;;;2.20;;
58950;SDS011;44730;53.158;6.398;2023-04-25T14:20:03;3.78;;;1.90;;
58950;SDS011;44730;53.158;6.398;2023-04-25T14:22:30;3.90;;;2.15;;
58950;SDS011;44730;53.158;6.398;2023-04-25T14:24:56;6.07;;;1.90;;
58950;SDS011;44730;53.158;6.398;2023-04-25T14:27:23;4.72;;;1.88;;
58950;SDS011;44730;53.158;6.398;2023-04-25T14:29:49;4.22;;;2.03;;
58950;SDS011;44730;53.158;6.398;2023-04-25T14:32:16;5.20;;;2.10;;
58950;SDS011;44730;53.158;6.398;2023-04-25T14:34:42;5.15;;;2.03;;
58950;SDS011;44730;53.158;6.398;2023-04-25T14:37:08;3.85;;;2.10;;
58950;SDS011;44730;53.158;6.398;2023-04-25T14:39:34;3.65;;;1.83;;
58950;SDS011;44730;53.158;6.398;2023-04-25T14:42:01;3.95;;;1.90;;
58950;SDS011;44730;53.158;6.398;2023-04-25T14:44:28;4.03;;;1.70;;
58950;SDS011;44730;53.158;6.398;2023-04-25T14:46:54;3.50;;;1.90;;
58950;SDS011;44730;53.158;6.398;2023-04-25T14:49:20;4.82;;;1.55;;
58950;SDS011;44730;53.158;6.398;2023-04-25T14:51:46;3.35;;;1.70;;
58950;SDS011;44730;53.158;6.398;2023-04-25T14:54:12;3.88;;;1.58;;